Time;durP1;ratioP1;P1;durP2;ratioP2;P2;SDS_P1;SDS_P2;PMS_P1;PMS_P2;Temp;Humidity;BMP_temperature;BMP_pressure;BME280_temperature;BME280_humidity;BME280_pressure;Samples;Min_cycle;Max_cycle;Signal;HPM_P1;HPM_P2
2023/09/01 00:00:12;;;;;;;25.73;17.02;;;;;;;18.27;100.00;-18518.75;5029265;28;20145;-76
2023/09/01 00:02:41;;;;;;;23.85;16.55;;;;;;;18.27;100.00;-18518.91;5028473;28;20562;-77
2023/09/01 00:05:07;;;;;;;26.17;18.52;;;;;;;18.10;100.00;-18514.25;5028189;28;20037;-75
2023/09/01 00:07:32;;;;;;;21.83;15.88;;;;;;;18.07;100.00;-18513.44;5025444;28;20112;-76
2023/09/01 00:09:58;;;;;;;23.75;16.63;;;;;;;18.02;100.00;-18512.06;5027776;28;20052;-76
2023/09/01 00:12:24;;;;;;;24.85;16.60;;;;;;;18.05;100.00;-18512.91;5027870;28;20041;-76
2023/09/01 00:14:50;;;;;;;22.58;15.90;;;;;;;17.88;100.00;-18508.25;5026710;28;20107;-76
2023/09/01 00:17:15;;;;;;;25.17;17.35;;;;;;;17.79;100.00;-18505.94;5014819;28;20241;-77
2023/09/01 00:19:41;;;;;;;26.38;17.70;;;;;;;17.76;100.00;-18505.25;5018748;28;20057;-77
2023/09/01 00:22:06;;;;;;;27.33;18.30;;;;;;;17.78;100.00;-18505.81;5033580;28;20057;-77
2023/09/01 00:24:32;;;;;;;25.98;18.23;;;;;;;17.74;100.00;-18504.69;5032082;28;20042;-77
2023/09/01 00:27:01;;;;;;;27.85;17.38;;;;;;;17.79;100.00;-18506.06;5034001;28;20093;-78
2023/09/01 00:29:26;;;;;;;27.88;19.23;;;;;;;17.95;100.00;-18510.16;5025697;28;20050;-77
2023/09/01 00:31:52;;;;;;;28.23;18.60;;;;;;;17.97;100.00;-18510.72;5033222;28;20053;-78
2023/09/01 00:34:17;;;;;;;30.95;19.23;;;;;;;18.10;100.00;-18514.25;5026341;28;20464;-78
2023/09/01 00:36:44;;;;;;;26.02;17.63;;;;;;;18.12;100.00;-18514.66;5028851;28;20033;-78
2023/09/01 00:39:09;;;;;;;26.00;17.95;;;;;;;17.92;100.00;-18509.47;5032107;28;20046;-79
2023/09/01 00:41:35;;;;;;;27.42;17.85;;;;;;;18.14;100.00;-18515.34;5014033;28;20045;-77
2023/09/01 00:44:01;;;;;;;27.35;16.55;;;;;;;18.08;100.00;-18513.72;5031067;28;20440;-78
2023/09/01 00:46:27;;;;;;;22.63;15.65;;;;;;;18.01;100.00;-18511.81;5031201;28;20045;-77
2023/09/01 00:48:57;;;;;;;25.63;16.60;;;;;;;18.07;100.00;-18513.31;5031181;28;20056;-78
2023/09/01 00:51:22;;;;;;;24.85;16.52;;;;;;;18.00;100.00;-18511.53;5023321;28;20045;-78
2023/09/01 00:53:49;;;;;;;24.58;17.10;;;;;;;18.15;100.00;-18515.47;5026109;28;20085;-78
2023/09/01 00:56:14;;;;;;;26.35;15.00;;;;;;;17.99;100.00;-18511.41;5026776;28;20082;-77
2023/09/01 00:58:39;;;;;;;25.20;16.08;;;;;;;18.11;100.00;-18514.41;5005704;28;20191;-78
2023/09/01 01:01:05;;;;;;;28.35;15.20;;;;;;;17.93;100.00;-18509.75;5029006;28;20112;-78
2023/09/01 01:03:33;;;;;;;27.60;16.13;;;;;;;18.08;100.00;-18513.72;5030609;28;20052;-78
2023/09/01 01:06:10;;;;;;;24.00;15.50;;;;;;;18.08;100.00;-18513.56;5010927;28;20102;-77
2023/09/01 01:08:53;;;;;;;20.88;14.80;;;;;;;18.23;100.00;-18517.66;5029679;28;20068;-77
2023/09/01 01:11:30;;;;;;;19.15;12.80;;;;;;;18.18;100.00;-18516.44;5014421;28;20052;-78
2023/09/01 01:13:59;;;;;;;20.23;13.95;;;;;;;18.27;100.00;-18518.91;5030288;28;20797;-78
2023/09/01 01:16:28;;;;;;;20.10;14.00;;;;;;;18.34;100.00;-18520.66;5010981;28;20064;-78
2023/09/01 01:18:54;;;;;;;21.65;13.50;;;;;;;18.26;100.00;-18518.63;5027729;28;20064;-76
2023/09/01 01:21:26;;;;;;;20.17;14.00;;;;;;;18.40;100.00;-18522.16;5028288;28;20825;-77
2023/09/01 01:23:53;;;;;;;21.15;14.10;;;;;;;18.41;100.00;-18522.44;5022469;28;20059;-76
2023/09/01 01:26:19;;;;;;;20.42;13.02;;;;;;;18.01;100.00;-18511.81;5026858;28;20128;-79
2023/09/01 01:28:45;;;;;;;22.77;14.05;;;;;;;17.97;100.00;-18510.72;5009541;28;20124;-79
2023/09/01 01:31:10;;;;;;;21.10;13.48;;;;;;;17.96;100.00;-18510.56;5006554;28;20160;-77
2023/09/01 01:34:20;;;;;;;23.13;13.63;;;;;;;17.88;100.00;-18508.25;5028952;28;20393;-77
2023/09/01 01:36:53;;;;;;;21.85;13.60;;;;;;;18.00;100.00;-18511.66;4907450;29;20052;-77
2023/09/01 01:39:24;;;;;;;21.65;13.27;;;;;;;17.91;100.00;-18509.06;4927064;29;20054;-76
2023/09/01 01:41:55;;;;;;;20.75;13.82;;;;;;;17.80;100.00;-18506.22;4980486;28;20505;-77
2023/09/01 01:44:33;;;;;;;21.75;13.15;;;;;;;18.07;100.00;-18513.31;5008604;28;20094;-77
2023/09/01 01:47:00;;;;;;;20.02;12.88;;;;;;;17.92;100.00;-18509.47;5025771;28;20152;-75
2023/09/01 01:49:27;;;;;;;23.38;15.68;;;;;;;17.96;100.00;-18510.44;5025471;28;20045;-76
2023/09/01 01:51:53;;;;;;;20.48;14.18;;;;;;;17.59;100.00;-18500.59;5024305;28;20124;-77
2023/09/01 01:54:18;;;;;;;21.50;13.25;;;;;;;17.55;100.00;-18499.50;5008111;28;20471;-77
2023/09/01 01:56:43;;;;;;;19.90;13.52;;;;;;;17.54;100.00;-18499.25;5026681;28;20421;-75
2023/09/01 01:59:09;;;;;;;25.20;13.07;;;;;;;17.43;100.00;-18496.25;5025554;28;20046;-76
2023/09/01 02:01:34;;;;;;;22.15;13.63;;;;;;;17.47;100.00;-18497.34;5023291;28;20057;-75
2023/09/01 02:03:59;;;;;;;22.35;14.57;;;;;;;17.18;100.00;-18489.69;5025409;28;20040;-75
2023/09/01 02:06:25;;;;;;;22.38;13.45;;;;;;;17.31;100.00;-18493.09;5022848;28;20053;-77
2023/09/01 02:08:50;;;;;;;20.85;13.23;;;;;;;17.20;100.00;-18490.22;5004164;28;20497;-76
2023/09/01 02:11:15;;;;;;;21.55;13.88;;;;;;;17.14;100.00;-18488.72;5018980;28;20061;-75
2023/09/01 02:13:41;;;;;;;21.48;13.70;;;;;;;17.05;100.00;-18486.13;5025795;28;20037;-76
2023/09/01 02:16:07;;;;;;;22.27;13.65;;;;;;;17.00;100.00;-18484.78;5026169;28;20481;-76
2023/09/01 02:18:32;;;;;;;20.88;14.27;;;;;;;16.88;100.00;-18481.75;5024395;28;20037;-76
2023/09/01 02:20:58;;;;;;;21.10;12.90;;;;;;;16.94;100.00;-18483.13;5007896;28;20045;-77
2023/09/01 02:23:24;;;;;;;21.20;13.77;;;;;;;16.86;100.00;-18481.22;5025445;28;20556;-76
2023/09/01 02:25:49;;;;;;;26.42;14.18;;;;;;;17.04;100.00;-18485.88;5025008;28;20076;-77
2023/09/01 02:28:15;;;;;;;23.83;14.02;;;;;;;16.98;100.00;-18484.22;5024014;28;20466;-74
2023/09/01 02:30:40;;;;;;;22.08;14.77;;;;;;;16.97;100.00;-18483.94;5020875;28;20497;-75
2023/09/01 02:33:06;;;;;;;20.92;14.00;;;;;;;16.96;100.00;-18483.81;5026729;28;20037;-76
2023/09/01 02:35:32;;;;;;;24.08;14.63;;;;;;;16.68;100.00;-18476.44;5023310;28;20132;-77
2023/09/01 02:37:58;;;;;;;20.35;14.52;;;;;;;16.65;100.00;-18475.63;5017255;28;20572;-77
2023/09/01 02:40:24;;;;;;;23.15;15.40;;;;;;;16.55;100.00;-18472.88;5029845;28;20500;-75
2023/09/01 02:42:51;;;;;;;24.20;15.00;;;;;;;16.56;100.00;-18473.16;5009598;28;20046;-76
2023/09/01 02:45:18;;;;;;;22.85;14.98;;;;;;;16.51;100.00;-18471.78;5030045;28;20041;-75
2023/09/01 02:47:43;;;;;;;24.33;15.15;;;;;;;16.46;100.00;-18470.44;5022529;28;20041;-76
2023/09/01 02:50:09;;;;;;;22.13;15.45;;;;;;;16.39;100.00;-18468.66;5015449;28;20045;-75
2023/09/01 02:52:35;;;;;;;22.75;15.23;;;;;;;16.31;100.00;-18466.47;5030299;28;20049;-75
2023/09/01 02:55:00;;;;;;;23.20;15.00;;;;;;;16.08;100.00;-18460.19;5028573;28;20041;-77
2023/09/01 02:57:26;;;;;;;23.92;15.77;;;;;;;16.13;100.00;-18461.69;5011647;28;20064;-76
2023/09/01 02:59:54;;;;;;;23.20;15.00;;;;;;;16.00;100.00;-18458.25;5029370;28;20087;-75
2023/09/01 03:02:20;;;;;;;21.33;14.03;;;;;;;16.00;100.00;-18458.13;5028899;28;20038;-75
2023/09/01 03:04:48;;;;;;;22.20;14.55;;;;;;;16.01;100.00;-18458.53;5006772;28;20056;-76
2023/09/01 03:07:14;;;;;;;22.15;13.93;;;;;;;15.91;100.00;-18455.81;5025720;28;20152;-75
2023/09/01 03:09:39;;;;;;;25.58;15.77;;;;;;;15.91;100.00;-18455.81;5026244;28;20128;-77
2023/09/01 03:12:04;;;;;;;20.65;13.40;;;;;;;15.98;100.00;-18457.56;5024842;28;20112;-76
2023/09/01 03:14:30;;;;;;;23.13;14.13;;;;;;;15.94;100.00;-18456.63;5027949;28;20080;-77
2023/09/01 03:16:56;;;;;;;24.33;14.98;;;;;;;15.96;100.00;-18457.03;5028633;28;20052;-77
2023/09/01 03:19:21;;;;;;;24.27;15.55;;;;;;;16.01;100.00;-18458.41;5008977;28;20046;-77
2023/09/01 03:21:47;;;;;;;19.02;14.05;;;;;;;15.94;100.00;-18456.63;5028252;28;20049;-76
2023/09/01 03:24:12;;;;;;;20.48;13.35;;;;;;;15.80;100.00;-18452.78;5025252;28;20042;-77
2023/09/01 03:26:37;;;;;;;21.10;13.27;;;;;;;15.71;100.00;-18450.34;5029946;28;20386;-76
2023/09/01 03:29:03;;;;;;;23.23;14.82;;;;;;;15.82;100.00;-18453.34;5029516;28;20137;-78
2023/09/01 03:31:29;;;;;;;22.67;14.45;;;;;;;15.84;100.00;-18453.75;5027164;28;20509;-76
2023/09/01 03:33:54;;;;;;;21.25;14.35;;;;;;;15.77;100.00;-18451.97;5028853;28;20060;-76
2023/09/01 03:36:20;;;;;;;21.20;14.27;;;;;;;15.74;100.00;-18451.16;5029024;28;20073;-75
2023/09/01 03:38:45;;;;;;;20.20;13.27;;;;;;;15.75;100.00;-18451.44;5028518;28;20065;-77
2023/09/01 03:41:10;;;;;;;22.17;14.73;;;;;;;15.64;100.00;-18448.56;5029453;28;20136;-77
2023/09/01 03:43:36;;;;;;;19.33;13.73;;;;;;;15.63;100.00;-18448.13;5030132;28;20065;-77
2023/09/01 03:46:02;;;;;;;25.23;14.45;;;;;;;15.56;100.00;-18446.50;5028810;28;20053;-76
2023/09/01 03:48:27;;;;;;;22.85;14.25;;;;;;;15.69;100.00;-18449.78;5029950;28;20049;-77
2023/09/01 03:51:10;;;;;;;23.27;15.65;;;;;;;15.64;100.00;-18448.56;5019411;28;20094;-76
2023/09/01 03:53:37;;;;;;;22.48;14.50;;;;;;;15.60;100.00;-18447.31;5006946;28;20148;-76
2023/09/01 03:56:11;;;;;;;21.98;14.10;;;;;;;15.49;100.00;-18444.59;5022395;28;20045;-75
2023/09/01 03:58:37;;;;;;;22.23;14.65;;;;;;;15.40;100.00;-18442.00;5027133;28;20404;-76
2023/09/01 04:01:08;;;;;;;20.98;14.25;;;;;;;15.49;100.00;-18444.44;5021407;28;20048;-75
2023/09/01 04:03:34;;;;;;;19.42;12.80;;;;;;;15.40;100.00;-18442.13;5027143;28;20147;-77
2023/09/01 04:05:59;;;;;;;20.23;13.75;;;;;;;15.34;100.00;-18440.47;5010395;28;20068;-77
2023/09/01 04:08:25;;;;;;;20.77;14.68;;;;;;;15.30;100.00;-18439.38;5013892;28;20045;-76
2023/09/01 04:10:50;;;;;;;22.48;14.27;;;;;;;15.48;100.00;-18444.31;5027177;28;20045;-77
2023/09/01 04:13:15;;;;;;;25.75;13.88;;;;;;;15.53;100.00;-18445.69;5012581;28;20037;-76
2023/09/01 04:15:41;;;;;;;26.52;14.85;;;;;;;15.58;100.00;-18447.03;5014157;28;20057;-76
2023/09/01 04:18:06;;;;;;;25.50;14.85;;;;;;;15.61;100.00;-18447.59;5023349;28;20053;-75
2023/09/01 04:20:31;;;;;;;20.55;14.30;;;;;;;15.72;100.00;-18450.59;5026809;28;20113;-75
2023/09/01 04:22:57;;;;;;;25.95;14.55;;;;;;;15.70;100.00;-18450.19;5025639;28;20450;-75
2023/09/01 04:25:22;;;;;;;26.38;15.00;;;;;;;15.76;100.00;-18451.84;5023369;28;20056;-76
2023/09/01 04:27:47;;;;;;;23.30;13.77;;;;;;;15.66;100.00;-18448.97;5024961;28;20050;-75
2023/09/01 04:30:13;;;;;;;23.98;13.98;;;;;;;15.68;100.00;-18449.50;5023929;28;20160;-75
2023/09/01 04:32:40;;;;;;;23.80;14.80;;;;;;;15.54;100.00;-18445.81;5024435;28;20099;-76
2023/09/01 04:35:06;;;;;;;21.70;13.68;;;;;;;15.52;100.00;-18445.41;5021137;28;20061;-76
2023/09/01 04:37:32;;;;;;;24.38;14.43;;;;;;;15.47;100.00;-18444.03;5006078;28;20041;-76
2023/09/01 04:39:57;;;;;;;23.63;15.57;;;;;;;15.48;100.00;-18444.31;5025728;28;20120;-76
2023/09/01 04:42:22;;;;;;;23.65;15.13;;;;;;;15.63;100.00;-18448.13;5026482;28;20715;-76
2023/09/01 04:44:48;;;;;;;29.10;15.90;;;;;;;15.71;100.00;-18450.47;5026097;28;20389;-76
2023/09/01 04:47:13;;;;;;;24.48;15.20;;;;;;;15.69;100.00;-18449.78;5026887;28;20408;-76
2023/09/01 04:49:39;;;;;;;23.10;15.25;;;;;;;15.73;100.00;-18450.88;5027049;28;20399;-77
2023/09/01 04:52:04;;;;;;;30.55;15.98;;;;;;;15.77;100.00;-18451.97;5017741;28;20033;-74
2023/09/01 04:54:29;;;;;;;25.85;15.00;;;;;;;15.98;100.00;-18457.72;5025288;28;20140;-76
2023/09/01 04:56:55;;;;;;;31.23;16.13;;;;;;;16.01;100.00;-18458.41;5021466;28;20044;-76
2023/09/01 04:59:20;;;;;;;26.95;16.50;;;;;;;15.92;100.00;-18455.94;5020476;28;20042;-76
2023/09/01 05:01:46;;;;;;;26.15;16.02;;;;;;;16.06;100.00;-18459.63;5027111;28;20072;-76
2023/09/01 05:04:14;;;;;;;24.02;14.65;;;;;;;15.91;100.00;-18455.81;5025686;28;20154;-76
2023/09/01 05:06:39;;;;;;;28.25;15.90;;;;;;;15.99;100.00;-18457.84;5026653;28;20034;-75
2023/09/01 05:09:05;;;;;;;31.52;16.65;;;;;;;15.87;100.00;-18454.56;5023604;28;20069;-76
2023/09/01 05:11:30;;;;;;;28.00;15.45;;;;;;;16.04;100.00;-18459.09;5026186;28;20046;-76
2023/09/01 05:13:56;;;;;;;26.23;16.25;;;;;;;16.11;100.00;-18461.13;5026806;28;20068;-76
2023/09/01 05:16:21;;;;;;;27.92;15.65;;;;;;;16.18;100.00;-18463.03;5022422;28;20044;-76
2023/09/01 05:18:46;;;;;;;23.95;16.02;;;;;;;16.20;100.00;-18463.47;5025715;28;20050;-76
2023/09/01 05:21:12;;;;;;;29.40;14.90;;;;;;;16.20;100.00;-18463.47;5023898;28;20497;-76
2023/09/01 05:23:38;;;;;;;29.83;17.83;;;;;;;16.40;100.00;-18468.94;5026943;28;20088;-76
2023/09/01 05:26:03;;;;;;;26.25;16.83;;;;;;;16.38;100.00;-18468.25;5025360;28;20042;-76
2023/09/01 05:28:28;;;;;;;30.00;17.35;;;;;;;16.44;100.00;-18470.00;5025899;28;20073;-76
2023/09/01 05:30:57;;;;;;;27.10;16.85;;;;;;;16.43;100.00;-18469.75;5004867;28;20562;-76
2023/09/01 05:33:22;;;;;;;31.60;17.67;;;;;;;16.40;100.00;-18468.94;5004996;28;20054;-76
2023/09/01 05:35:48;;;;;;;25.70;16.65;;;;;;;16.44;100.00;-18469.88;5026103;28;20099;-76
2023/09/01 05:38:13;;;;;;;24.05;15.13;;;;;;;16.60;100.00;-18474.13;5024520;28;20124;-76
2023/09/01 05:40:39;;;;;;;30.83;16.63;;;;;;;16.59;100.00;-18473.84;5024816;28;20095;-76
2023/09/01 05:43:04;;;;;;;28.73;16.02;;;;;;;16.56;100.00;-18473.16;5025955;28;20129;-77
2023/09/01 05:45:29;;;;;;;27.08;17.52;;;;;;;16.56;100.00;-18473.16;5019722;28;20575;-76
2023/09/01 05:47:56;;;;;;;27.88;16.80;;;;;;;16.51;100.00;-18471.78;5024884;28;20493;-76
2023/09/01 05:50:21;;;;;;;28.10;17.50;;;;;;;16.64;100.00;-18475.22;5025415;28;20041;-76
2023/09/01 05:52:47;;;;;;;28.63;17.10;;;;;;;16.84;100.00;-18480.53;5023036;28;20052;-76
2023/09/01 05:55:13;;;;;;;30.60;17.20;;;;;;;16.79;100.00;-18479.31;5018936;28;20103;-76
2023/09/01 05:57:39;;;;;;;34.33;18.65;;;;;;;16.94;100.00;-18483.13;5025612;28;20568;-76
2023/09/01 06:00:05;;;;;;;26.23;16.80;;;;;;;17.02;100.00;-18485.31;5005867;28;20133;-76
2023/09/01 06:02:30;;;;;;;29.00;17.00;;;;;;;17.09;100.00;-18487.22;5019750;28;20047;-76
2023/09/01 06:04:56;;;;;;;27.52;17.17;;;;;;;17.09;100.00;-18487.22;5023937;28;20132;-77
2023/09/01 06:07:21;;;;;;;28.85;17.08;;;;;;;17.13;100.00;-18488.47;5024452;28;20120;-77
2023/09/01 06:09:46;;;;;;;32.63;17.25;;;;;;;17.22;100.00;-18490.78;5006141;28;20041;-77
2023/09/01 06:12:14;;;;;;;29.25;17.83;;;;;;;17.10;100.00;-18487.50;5025350;28;20099;-77
2023/09/01 06:14:40;;;;;;;30.73;18.02;;;;;;;17.26;100.00;-18491.72;5011645;28;20505;-76
2023/09/01 06:17:05;;;;;;;27.55;17.10;;;;;;;17.35;100.00;-18494.34;5018281;28;20049;-77
2023/09/01 06:19:30;;;;;;;33.60;19.80;;;;;;;17.40;100.00;-18495.41;5024204;28;20544;-76
2023/09/01 06:21:56;;;;;;;33.13;19.52;;;;;;;17.46;100.00;-18497.19;5006949;28;20057;-77
2023/09/01 06:24:21;;;;;;;40.00;19.40;;;;;;;17.57;100.00;-18500.06;5024400;28;20057;-76
2023/09/01 06:26:46;;;;;;;35.70;19.80;;;;;;;17.61;100.00;-18501.16;5007655;28;20049;-77
2023/09/01 06:29:12;;;;;;;27.10;18.45;;;;;;;17.71;100.00;-18503.88;5018706;28;20751;-77
2023/09/01 06:31:37;;;;;;;30.95;18.70;;;;;;;17.64;100.00;-18501.97;5018869;28;20154;-77
2023/09/01 06:34:03;;;;;;;30.42;18.27;;;;;;;17.78;100.00;-18505.81;5022508;28;20516;-76
2023/09/01 06:36:28;;;;;;;27.77;18.13;;;;;;;17.76;100.00;-18505.25;5015837;28;20099;-77
2023/09/01 06:38:54;;;;;;;27.63;18.10;;;;;;;17.84;100.00;-18507.16;5023440;28;20042;-77
2023/09/01 06:41:19;;;;;;;25.85;15.00;;;;;;;17.77;100.00;-18505.38;5024982;28;20110;-76
2023/09/01 06:43:45;;;;;;;31.08;16.33;;;;;;;17.87;100.00;-18508.13;5024756;28;20160;-76
2023/09/01 06:46:11;;;;;;;26.73;16.67;;;;;;;17.83;100.00;-18507.03;5024182;28;20100;-77
2023/09/01 06:48:36;;;;;;;22.63;15.32;;;;;;;18.07;100.00;-18513.44;5021917;28;20116;-77
2023/09/01 06:51:02;;;;;;;22.30;14.73;;;;;;;18.06;100.00;-18513.03;5024071;28;20754;-77
2023/09/01 06:53:28;;;;;;;24.88;15.77;;;;;;;18.15;100.00;-18515.63;5024932;28;20038;-77
2023/09/01 06:55:53;;;;;;;25.52;15.13;;;;;;;18.17;100.00;-18516.03;5024732;28;20572;-77
2023/09/01 06:58:19;;;;;;;25.40;14.80;;;;;;;18.22;100.00;-18517.41;5009625;28;20041;-77
2023/09/01 07:00:44;;;;;;;20.20;14.70;;;;;;;18.44;100.00;-18523.41;5025137;28;20029;-76
2023/09/01 07:03:10;;;;;;;23.25;13.82;;;;;;;18.60;100.00;-18527.63;5025220;28;20566;-76
2023/09/01 07:05:35;;;;;;;20.95;12.32;;;;;;;18.55;100.00;-18526.13;5024185;28;20043;-76
2023/09/01 07:08:01;;;;;;;18.58;12.35;;;;;;;18.67;100.00;-18529.53;5022531;28;20041;-76
2023/09/01 07:10:26;;;;;;;18.75;11.82;;;;;;;18.78;100.00;-18532.25;5024801;28;20049;-76
2023/09/01 07:12:51;;;;;;;22.48;12.20;;;;;;;18.92;100.00;-18536.06;5025115;28;20041;-77
2023/09/01 07:15:17;;;;;;;16.65;11.60;;;;;;;19.07;100.00;-18540.16;5024181;28;20041;-77
2023/09/01 07:17:42;;;;;;;15.73;11.48;;;;;;;19.15;100.00;-18542.34;5024629;28;20044;-77
2023/09/01 07:20:10;;;;;;;18.02;10.60;;;;;;;19.22;100.00;-18543.97;5023088;28;20037;-77
2023/09/01 07:22:35;;;;;;;16.52;10.82;;;;;;;19.21;100.00;-18543.84;5005887;28;20903;-76
2023/09/01 07:25:00;;;;;;;17.23;10.43;;;;;;;19.30;100.00;-18546.28;5024939;28;20033;-77
2023/09/01 07:27:26;;;;;;;14.25;10.38;;;;;;;19.36;100.00;-18547.94;5026893;28;20049;-77
2023/09/01 07:29:51;;;;;;;15.10;9.82;;;;;;;19.44;100.00;-18549.84;5026312;28;20041;-77
2023/09/01 07:32:17;;;;;;;13.65;9.85;;;;;;;19.58;100.00;-18553.78;5028009;28;20150;-77
2023/09/01 07:34:42;;;;;;;18.55;10.73;;;;;;;19.66;100.00;-18555.69;5024307;28;20038;-75
2023/09/01 07:37:08;;;;;;;13.63;9.95;;;;;;;19.71;100.00;-18557.19;5022251;28;20045;-76
2023/09/01 07:39:35;;;;;;;14.43;8.77;;;;;;;19.78;100.00;-18559.09;5026736;28;20568;-76
2023/09/01 07:42:01;;;;;;;15.68;9.23;;;;;;;19.88;100.00;-18561.69;5027275;28;20037;-77
2023/09/01 07:44:26;;;;;;;13.02;8.77;;;;;;;20.08;100.00;-18567.00;5024345;28;20419;-77
2023/09/01 07:46:51;;;;;;;14.68;7.78;;;;;;;20.12;100.00;-18567.97;5027650;28;20049;-77
2023/09/01 07:49:17;;;;;;;14.18;8.05;;;;;;;20.13;100.00;-18568.22;5029841;28;20050;-78
2023/09/01 07:51:43;;;;;;;10.48;7.40;;;;;;;20.22;100.00;-18570.81;5010748;28;20050;-76
2023/09/01 07:54:08;;;;;;;11.60;7.82;;;;;;;20.18;100.00;-18569.59;5028612;28;20038;-76
2023/09/01 07:56:35;;;;;;;14.00;8.02;;;;;;;20.50;100.00;-18578.28;5028213;28;20041;-77
2023/09/01 07:59:00;;;;;;;12.02;7.65;;;;;;;20.64;100.00;-18581.84;5029797;28;20041;-76
2023/09/01 08:01:26;;;;;;;10.25;6.75;;;;;;;20.62;100.00;-18581.28;5029968;28;20040;-77
2023/09/01 08:03:51;;;;;;;11.18;6.68;;;;;;;20.78;100.00;-18585.50;5026281;28;20038;-76
2023/09/01 08:06:17;;;;;;;11.40;6.38;;;;;;;20.88;100.00;-18588.22;5027543;28;20234;-77
2023/09/01 08:08:42;;;;;;;11.43;7.03;;;;;;;20.93;100.00;-18589.59;5012466;28;20660;-77
2023/09/01 08:11:07;;;;;;;11.50;7.07;;;;;;;20.81;100.00;-18586.47;5029748;28;20041;-78
2023/09/01 08:13:33;;;;;;;8.95;6.63;;;;;;;21.01;100.00;-18591.78;5030143;28;20041;-77
2023/09/01 08:15:59;;;;;;;8.05;6.20;;;;;;;21.09;100.00;-18593.94;5028772;28;20037;-77
2023/09/01 08:18:24;;;;;;;14.00;6.75;;;;;;;21.05;100.00;-18592.84;5028406;28;20041;-76
2023/09/01 08:20:50;;;;;;;8.90;6.65;;;;;;;20.99;100.00;-18591.09;5029953;28;20047;-78
2023/09/01 08:23:15;;;;;;;10.25;6.30;;;;;;;21.15;100.00;-18595.44;5029220;28;20041;-78
2023/09/01 08:25:41;;;;;;;9.85;6.70;;;;;;;21.23;100.00;-18597.63;5027987;28;20158;-77
2023/09/01 08:28:07;;;;;;;8.75;6.30;;;;;;;21.25;100.00;-18598.16;5026195;28;20458;-77
2023/09/01 08:30:32;;;;;;;10.95;5.88;;;;;;;21.33;100.00;-18600.19;5028505;28;20041;-78
2023/09/01 08:32:58;;;;;;;10.52;6.07;;;;;;;21.37;100.00;-18601.41;5028090;28;20041;-78
2023/09/01 08:35:23;;;;;;;8.60;6.20;;;;;;;21.62;100.00;-18607.94;5010833;28;20045;-77
2023/09/01 08:37:49;;;;;;;10.40;5.95;;;;;;;21.64;100.00;-18608.50;5020483;28;20045;-76
2023/09/01 08:40:14;;;;;;;8.75;5.57;;;;;;;21.59;100.00;-18607.28;5024761;28;20049;-78
2023/09/01 08:42:48;;;;;;;10.07;6.25;;;;;;;21.82;100.00;-18613.38;5017056;28;20401;-77
2023/09/01 08:45:15;;;;;;;10.30;5.63;;;;;;;21.89;100.00;-18615.16;5029654;28;20053;-77
2023/09/01 08:47:48;;;;;;;7.63;5.55;;;;;;;21.98;100.00;-18617.59;5029771;28;20079;-77
2023/09/01 08:50:16;;;;;;;9.40;5.05;;;;;;;21.88;100.00;-18614.75;5029413;28;20045;-77
2023/09/01 08:52:44;;;;;;;8.27;5.82;;;;;;;22.04;100.00;-18619.09;5029862;28;20076;-77
2023/09/01 08:55:10;;;;;;;10.33;5.37;;;;;;;21.93;100.00;-18616.09;5012713;28;20045;-77
2023/09/01 08:57:37;;;;;;;7.72;4.90;;;;;;;22.12;100.00;-18621.25;5027711;28;20705;-76
2023/09/01 09:00:04;;;;;;;11.00;5.65;;;;;;;22.26;100.00;-18624.94;5024497;28;20501;-78
2023/09/01 09:02:30;;;;;;;6.38;4.32;;;;;;;22.34;100.00;-18626.97;5028009;28;20049;-76
2023/09/01 09:04:56;;;;;;;7.43;5.20;;;;;;;22.29;100.00;-18625.88;5024970;28;20401;-77
2023/09/01 09:07:21;;;;;;;9.18;5.07;;;;;;;22.24;100.00;-18624.38;5026543;28;20108;-77
2023/09/01 09:09:51;;;;;;;9.68;5.13;;;;;;;22.04;100.00;-18619.22;5024006;28;20409;-77
2023/09/01 09:12:18;;;;;;;7.30;4.68;;;;;;;22.13;100.00;-18621.53;5028582;28;20053;-77
2023/09/01 09:14:50;;;;;;;6.43;4.45;;;;;;;22.22;100.00;-18623.84;5027374;28;20136;-76
2023/09/01 09:17:16;;;;;;;8.15;4.55;;;;;;;21.92;100.00;-18615.81;5027333;28;20069;-77
2023/09/01 09:19:53;;;;;;;7.57;4.88;;;;;;;22.19;100.00;-18623.03;5010614;28;20118;-77
2023/09/01 09:22:19;;;;;;;7.28;4.75;;;;;;;22.25;100.00;-18624.81;5025179;28;20535;-76
2023/09/01 09:24:45;;;;;;;18.38;6.63;;;;;;;22.00;100.00;-18618.00;5024456;28;20041;-76
2023/09/01 09:27:14;;;;;;;7.43;4.75;;;;;;;22.13;100.00;-18621.53;5007767;28;20068;-77
2023/09/01 09:29:48;;;;;;;7.25;4.60;;;;;;;21.96;100.00;-18616.91;5025789;28;20060;-77
2023/09/01 09:32:18;;;;;;;8.40;4.88;;;;;;;22.01;100.00;-18618.28;5023906;28;20049;-77
2023/09/01 09:35:13;;;;;;;9.73;6.00;;;;;;;22.08;100.00;-18620.19;5024272;28;20095;-77
2023/09/01 09:37:41;;;;;;;8.40;5.00;;;;;;;21.95;100.00;-18616.66;5005128;28;20076;-77
2023/09/01 09:40:15;;;;;;;8.45;5.00;;;;;;;22.00;100.00;-18618.00;5006673;28;20056;-77
2023/09/01 09:42:42;;;;;;;7.40;4.90;;;;;;;22.27;100.00;-18625.22;5024209;28;21909;-76
2023/09/01 09:45:23;;;;;;;6.70;4.78;;;;;;;22.43;100.00;-18629.41;5024560;28;20385;-76
2023/09/01 09:47:49;;;;;;;7.50;4.85;;;;;;;22.60;100.00;-18633.91;5022711;28;21765;-75
2023/09/01 09:50:17;;;;;;;8.85;5.65;;;;;;;22.68;100.00;-18636.19;5017423;28;20041;-76
2023/09/01 09:52:49;;;;;;;9.60;4.80;;;;;;;22.54;100.00;-18632.41;5022467;28;20041;-76
2023/09/01 09:55:24;;;;;;;7.63;4.95;;;;;;;22.62;100.00;-18634.44;5022035;28;20140;-76
2023/09/01 09:57:51;;;;;;;9.25;5.00;;;;;;;22.64;100.00;-18635.13;5025480;28;20044;-76
2023/09/01 10:00:20;;;;;;;10.85;5.05;;;;;;;22.48;100.00;-18630.78;5020666;28;20524;-77
2023/09/01 10:02:50;;;;;;;9.10;5.13;;;;;;;22.55;100.00;-18632.66;5026935;28;20044;-76
2023/09/01 10:05:17;;;;;;;7.90;5.10;;;;;;;22.45;100.00;-18629.97;5019160;28;20030;-77
2023/09/01 10:07:42;;;;;;;6.30;4.80;;;;;;;22.55;100.00;-18632.53;5024811;28;20072;-76
2023/09/01 10:10:09;;;;;;;8.95;5.57;;;;;;;22.45;100.00;-18630.09;5026676;28;20084;-77
2023/09/01 10:12:36;;;;;;;6.55;4.80;;;;;;;22.44;100.00;-18629.81;5025427;28;20041;-77
2023/09/01 10:15:03;;;;;;;9.25;5.05;;;;;;;22.45;100.00;-18629.97;5009232;28;20049;-78
2023/09/01 10:17:32;;;;;;;9.48;5.15;;;;;;;22.28;100.00;-18625.63;5027152;28;20046;-76
2023/09/01 10:20:00;;;;;;;8.52;4.97;;;;;;;22.47;100.00;-18630.63;5027111;28;20048;-77
2023/09/01 10:22:25;;;;;;;9.60;5.28;;;;;;;22.38;100.00;-18628.06;5008317;28;20046;-77
2023/09/01 10:25:29;;;;;;;9.35;5.78;;;;;;;22.62;100.00;-18634.56;5009267;28;20041;-77
2023/09/01 10:28:10;;;;;;;10.18;5.78;;;;;;;22.57;100.00;-18633.22;4910790;29;20119;-76
2023/09/01 10:30:37;;;;;;;9.68;5.85;;;;;;;22.39;100.00;-18628.34;4926784;29;20050;-77
2023/09/01 10:33:16;;;;;;;9.25;6.05;;;;;;;22.11;100.00;-18620.84;4981033;28;20033;-77
2023/09/01 10:35:42;;;;;;;7.47;5.15;;;;;;;22.30;100.00;-18626.03;5026285;28;20057;-76
2023/09/01 10:38:19;;;;;;;10.57;6.35;;;;;;;22.51;100.00;-18631.59;5025650;28;20497;-76
2023/09/01 10:40:51;;;;;;;9.85;5.78;;;;;;;22.30;100.00;-18626.16;5027048;28;20050;-77
2023/09/01 10:43:37;;;;;;;9.18;5.63;;;;;;;22.50;100.00;-18631.44;5007693;28;20080;-75
2023/09/01 10:46:12;;;;;;;9.93;5.60;;;;;;;22.61;100.00;-18634.31;5027618;28;20037;-77
2023/09/01 10:48:47;;;;;;;8.23;6.30;;;;;;;22.63;100.00;-18634.72;5027078;28;20042;-76
2023/09/01 10:51:25;;;;;;;10.88;6.30;;;;;;;22.87;100.00;-18641.22;5029213;28;20107;-77
2023/09/01 10:53:52;;;;;;;13.80;6.20;;;;;;;22.72;100.00;-18637.28;5024362;28;20084;-76
2023/09/01 10:56:19;;;;;;;8.23;5.85;;;;;;;22.69;100.00;-18636.47;5009299;28;20064;-77
2023/09/01 10:58:44;;;;;;;9.18;5.43;;;;;;;22.82;100.00;-18639.72;5025569;28;20046;-76
2023/09/01 11:01:30;;;;;;;7.57;5.25;;;;;;;22.73;100.00;-18637.44;5012928;28;20796;-77
2023/09/01 11:04:16;;;;;;;9.05;5.15;;;;;;;22.65;100.00;-18635.25;5009070;28;20527;-77